sensor_id;sensor_type;location;lat;lon;timestamp;P1;durP1;ratioP1;P2;durP2;ratioP2
60979;SDS011;46851;49.160;8.980;2023-03-23T00:01:20;2.58;;;0.90;;
60979;SDS011;46851;49.160;8.980;2023-03-23T00:03:47;3.10;;;0.90;;
60979;SDS011;46851;49.160;8.980;2023-03-23T00:06:14;1.33;;;0.98;;
60979;SDS011;46851;49.160;8.980;2023-03-23T00:08:47;1.15;;;0.80;;
60979;SDS011;46851;49.160;8.980;2023-03-23T00:11:15;2.13;;;0.90;;
60979;SDS011;46851;49.160;8.980;2023-03-23T00:13:42;2.28;;;0.70;;
60979;SDS011;46851;49.160;8.980;2023-03-23T00:16:09;1.38;;;0.90;;
60979;SDS011;46851;49.160;8.980;2023-03-23T00:18:43;1.27;;;0.90;;
60979;SDS011;46851;49.160;8.980;2023-03-23T00:21:09;1.70;;;0.82;;
60979;SDS011;46851;49.160;8.980;2023-03-23T00:23:35;3.47;;;0.77;;
60979;SDS011;46851;49.160;8.980;2023-03-23T00:26:03;1.23;;;0.80;;
60979;SDS011;46851;49.160;8.980;2023-03-23T00:28:29;0.90;;;0.80;;
60979;SDS011;46851;49.160;8.980;2023-03-23T00:30:59;1.30;;;0.85;;
60979;SDS011;46851;49.160;8.980;2023-03-23T00:33:26;2.92;;;0.90;;
60979;SDS011;46851;49.160;8.980;2023-03-23T00:35:53;2.58;;;0.93;;
60979;SDS011;46851;49.160;8.980;2023-03-23T00:38:19;1.65;;;0.90;;
60979;SDS011;46851;49.160;8.980;2023-03-23T00:40:46;2.15;;;0.93;;
60979;SDS011;46851;49.160;8.980;2023-03-23T00:43:12;1.15;;;0.90;;
60979;SDS011;46851;49.160;8.980;2023-03-23T00:45:38;1.70;;;1.05;;
60979;SDS011;46851;49.160;8.980;2023-03-23T00:48:04;1.02;;;0.90;;
60979;SDS011;46851;49.160;8.980;2023-03-23T00:50:31;0.90;;;0.80;;
60979;SDS011;46851;49.160;8.980;2023-03-23T00:52:57;2.22;;;1.40;;
60979;SDS011;46851;49.160;8.980;2023-03-23T00:55:24;2.08;;;0.82;;
60979;SDS011;46851;49.160;8.980;2023-03-23T00:57:50;1.75;;;0.90;;
60979;SDS011;46851;49.160;8.980;2023-03-23T01:00:17;1.00;;;0.75;;
60979;SDS011;46851;49.160;8.980;2023-03-23T01:02:44;2.67;;;1.00;;
60979;SDS011;46851;49.160;8.980;2023-03-23T01:05:10;1.55;;;0.70;;
60979;SDS011;46851;49.160;8.980;2023-03-23T01:07:37;0.90;;;0.70;;
60979;SDS011;46851;49.160;8.980;2023-03-23T01:10:04;3.22;;;0.88;;
60979;SDS011;46851;49.160;8.980;2023-03-23T01:12:30;1.95;;;0.90;;
60979;SDS011;46851;49.160;8.980;2023-03-23T01:14:56;1.00;;;0.80;;
60979;SDS011;46851;49.160;8.980;2023-03-23T01:17:22;2.00;;;1.00;;
60979;SDS011;46851;49.160;8.980;2023-03-23T01:19:48;2.17;;;1.20;;
60979;SDS011;46851;49.160;8.980;2023-03-23T01:22:14;2.55;;;1.00;;
60979;SDS011;46851;49.160;8.980;2023-03-23T01:24:40;3.92;;;1.00;;
60979;SDS011;46851;49.160;8.980;2023-03-23T01:27:06;3.22;;;1.17;;
60979;SDS011;46851;49.160;8.980;2023-03-23T01:29:33;1.63;;;0.80;;
60979;SDS011;46851;49.160;8.980;2023-03-23T01:31:59;1.90;;;1.00;;
60979;SDS011;46851;49.160;8.980;2023-03-23T01:34:25;1.48;;;1.00;;
60979;SDS011;46851;49.160;8.980;2023-03-23T01:36:51;2.33;;;0.80;;
60979;SDS011;46851;49.160;8.980;2023-03-23T01:39:17;1.58;;;0.90;;
60979;SDS011;46851;49.160;8.980;2023-03-23T01:41:43;1.95;;;1.00;;
60979;SDS011;46851;49.160;8.980;2023-03-23T01:46:42;2.97;;;1.08;;
60979;SDS011;46851;49.160;8.980;2023-03-23T01:49:19;2.85;;;0.98;;
60979;SDS011;46851;49.160;8.980;2023-03-23T01:51:51;1.23;;;0.88;;
60979;SDS011;46851;49.160;8.980;2023-03-23T01:54:18;1.20;;;0.88;;
60979;SDS011;46851;49.160;8.980;2023-03-23T01:56:54;3.50;;;1.00;;
60979;SDS011;46851;49.160;8.980;2023-03-23T01:59:21;1.63;;;0.95;;
60979;SDS011;46851;49.160;8.980;2023-03-23T02:01:48;1.50;;;1.05;;
60979;SDS011;46851;49.160;8.980;2023-03-23T02:04:17;2.95;;;1.20;;
60979;SDS011;46851;49.160;8.980;2023-03-23T02:06:44;3.22;;;0.90;;
60979;SDS011;46851;49.160;8.980;2023-03-23T02:09:10;1.88;;;1.10;;
60979;SDS011;46851;49.160;8.980;2023-03-23T02:11:38;1.08;;;0.90;;
60979;SDS011;46851;49.160;8.980;2023-03-23T02:14:05;3.65;;;1.13;;
60979;SDS011;46851;49.160;8.980;2023-03-23T02:24:21;1.60;;;1.05;;
60979;SDS011;46851;49.160;8.980;2023-03-23T02:26:56;2.67;;;1.00;;
60979;SDS011;46851;49.160;8.980;2023-03-23T02:34:55;2.15;;;1.17;;
60979;SDS011;46851;49.160;8.980;2023-03-23T02:37:33;1.48;;;0.95;;
60979;SDS011;46851;49.160;8.980;2023-03-23T02:40:06;3.33;;;1.10;;
60979;SDS011;46851;49.160;8.980;2023-03-23T02:42:38;1.50;;;1.00;;
60979;SDS011;46851;49.160;8.980;2023-03-23T02:45:06;1.73;;;1.00;;
60979;SDS011;46851;49.160;8.980;2023-03-23T02:47:33;1.70;;;1.15;;
60979;SDS011;46851;49.160;8.980;2023-03-23T02:50:01;2.20;;;1.20;;
60979;SDS011;46851;49.160;8.980;2023-03-23T02:52:28;2.17;;;0.88;;
60979;SDS011;46851;49.160;8.980;2023-03-23T02:54:55;1.58;;;1.13;;
60979;SDS011;46851;49.160;8.980;2023-03-23T02:57:23;3.10;;;1.20;;
60979;SDS011;46851;49.160;8.980;2023-03-23T02:59:51;1.42;;;0.90;;
60979;SDS011;46851;49.160;8.980;2023-03-23T03:02:23;1.40;;;1.00;;
60979;SDS011;46851;49.160;8.980;2023-03-23T03:04:53;3.75;;;1.17;;
60979;SDS011;46851;49.160;8.980;2023-03-23T03:09:54;2.15;;;1.23;;
60979;SDS011;46851;49.160;8.980;2023-03-23T03:12:26;3.10;;;1.25;;
60979;SDS011;46851;49.160;8.980;2023-03-23T03:15:06;1.33;;;1.13;;
60979;SDS011;46851;49.160;8.980;2023-03-23T03:17:34;1.20;;;1.10;;
60979;SDS011;46851;49.160;8.980;2023-03-23T03:20:02;3.38;;;1.48;;
60979;SDS011;46851;49.160;8.980;2023-03-23T03:22:35;3.25;;;1.30;;
60979;SDS011;46851;49.160;8.980;2023-03-23T03:25:03;2.55;;;1.30;;
60979;SDS011;46851;49.160;8.980;2023-03-23T03:27:30;2.78;;;1.10;;
60979;SDS011;46851;49.160;8.980;2023-03-23T03:29:57;4.05;;;1.00;;
60979;SDS011;46851;49.160;8.980;2023-03-23T03:32:32;3.03;;;1.05;;
60979;SDS011;46851;49.160;8.980;2023-03-23T03:35:01;1.75;;;1.00;;
60979;SDS011;46851;49.160;8.980;2023-03-23T03:37:32;1.77;;;1.02;;
60979;SDS011;46851;49.160;8.980;2023-03-23T03:39:58;2.45;;;1.02;;
60979;SDS011;46851;49.160;8.980;2023-03-23T03:42:25;2.25;;;1.23;;
60979;SDS011;46851;49.160;8.980;2023-03-23T03:44:51;4.13;;;1.67;;
60979;SDS011;46851;49.160;8.980;2023-03-23T03:47:17;3.45;;;1.70;;
60979;SDS011;46851;49.160;8.980;2023-03-23T03:49:43;2.15;;;1.38;;
60979;SDS011;46851;49.160;8.980;2023-03-23T03:52:09;3.72;;;1.38;;
60979;SDS011;46851;49.160;8.980;2023-03-23T03:54:35;1.52;;;1.10;;
60979;SDS011;46851;49.160;8.980;2023-03-23T03:57:01;2.88;;;1.02;;
60979;SDS011;46851;49.160;8.980;2023-03-23T03:59:27;1.30;;;1.17;;
60979;SDS011;46851;49.160;8.980;2023-03-23T04:01:55;3.60;;;1.40;;
60979;SDS011;46851;49.160;8.980;2023-03-23T04:04:21;3.38;;;1.17;;
60979;SDS011;46851;49.160;8.980;2023-03-23T04:06:47;4.03;;;1.40;;
60979;SDS011;46851;49.160;8.980;2023-03-23T04:09:13;2.65;;;1.27;;
60979;SDS011;46851;49.160;8.980;2023-03-23T04:11:39;3.42;;;1.30;;
60979;SDS011;46851;49.160;8.980;2023-03-23T04:14:05;2.55;;;1.52;;
60979;SDS011;46851;49.160;8.980;2023-03-23T04:16:31;5.32;;;1.60;;
60979;SDS011;46851;49.160;8.980;2023-03-23T04:18:59;6.88;;;1.45;;
60979;SDS011;46851;49.160;8.980;2023-03-23T04:21:25;2.40;;;1.48;;
60979;SDS011;46851;49.160;8.980;2023-03-23T04:23:54;2.13;;;1.35;;
60979;SDS011;46851;49.160;8.980;2023-03-23T04:28:55;2.47;;;1.30;;
60979;SDS011;46851;49.160;8.980;2023-03-23T04:31:23;2.75;;;1.40;;
60979;SDS011;46851;49.160;8.980;2023-03-23T04:33:51;2.35;;;1.50;;
60979;SDS011;46851;49.160;8.980;2023-03-23T04:36:17;6.40;;;1.35;;
60979;SDS011;46851;49.160;8.980;2023-03-23T04:38:43;2.15;;;1.20;;
60979;SDS011;46851;49.160;8.980;2023-03-23T04:41:10;4.15;;;1.58;;
60979;SDS011;46851;49.160;8.980;2023-03-23T04:43:36;2.45;;;1.40;;
60979;SDS011;46851;49.160;8.980;2023-03-23T04:46:07;2.80;;;1.52;;
60979;SDS011;46851;49.160;8.980;2023-03-23T04:48:36;1.53;;;1.20;;
60979;SDS011;46851;49.160;8.980;2023-03-23T04:51:04;3.08;;;1.35;;
60979;SDS011;46851;49.160;8.980;2023-03-23T04:53:30;2.03;;;1.27;;
60979;SDS011;46851;49.160;8.980;2023-03-23T04:55:57;2.70;;;1.20;;
60979;SDS011;46851;49.160;8.980;2023-03-23T04:58:23;3.42;;;1.60;;
60979;SDS011;46851;49.160;8.980;2023-03-23T05:00:49;2.90;;;1.20;;
60979;SDS011;46851;49.160;8.980;2023-03-23T05:03:16;6.78;;;1.60;;
60979;SDS011;46851;49.160;8.980;2023-03-23T05:05:43;8.07;;;1.50;;
60979;SDS011;46851;49.160;8.980;2023-03-23T05:08:12;2.80;;;1.20;;
60979;SDS011;46851;49.160;8.980;2023-03-23T05:10:38;2.10;;;1.17;;
60979;SDS011;46851;49.160;8.980;2023-03-23T05:13:03;2.60;;;1.48;;
60979;SDS011;46851;49.160;8.980;2023-03-23T05:15:30;3.08;;;1.30;;
60979;SDS011;46851;49.160;8.980;2023-03-23T05:17:56;3.80;;;1.40;;
60979;SDS011;46851;49.160;8.980;2023-03-23T05:20:22;6.55;;;2.05;;
60979;SDS011;46851;49.160;8.980;2023-03-23T05:22:49;4.63;;;1.42;;
60979;SDS011;46851;49.160;8.980;2023-03-23T05:25:16;2.97;;;1.33;;
60979;SDS011;46851;49.160;8.980;2023-03-23T05:27:46;7.38;;;1.75;;
60979;SDS011;46851;49.160;8.980;2023-03-23T05:30:17;12.25;;;2.70;;
60979;SDS011;46851;49.160;8.980;2023-03-23T05:32:43;18.60;;;2.72;;
60979;SDS011;46851;49.160;8.980;2023-03-23T05:35:10;25.40;;;3.70;;
60979;SDS011;46851;49.160;8.980;2023-03-23T05:37:36;38.38;;;3.97;;
60979;SDS011;46851;49.160;8.980;2023-03-23T05:40:03;63.97;;;5.65;;
60979;SDS011;46851;49.160;8.980;2023-03-23T05:42:33;81.63;;;5.65;;
60979;SDS011;46851;49.160;8.980;2023-03-23T05:45:01;74.75;;;5.18;;
60979;SDS011;46851;49.160;8.980;2023-03-23T05:47:27;49.05;;;3.72;;
60979;SDS011;46851;49.160;8.980;2023-03-23T05:49:53;46.72;;;3.58;;
60979;SDS011;46851;49.160;8.980;2023-03-23T05:52:19;53.17;;;4.30;;
60979;SDS011;46851;49.160;8.980;2023-03-23T05:54:46;58.42;;;4.60;;
60979;SDS011;46851;49.160;8.980;2023-03-23T05:57:12;42.75;;;4.05;;
60979;SDS011;46851;49.160;8.980;2023-03-23T05:59:38;27.83;;;3.38;;
60979;SDS011;46851;49.160;8.980;2023-03-23T06:02:04;38.72;;;3.60;;
60979;SDS011;46851;49.160;8.980;2023-03-23T06:04:30;17.67;;;2.15;;
60979;SDS011;46851;49.160;8.980;2023-03-23T06:06:58;23.27;;;3.00;;
60979;SDS011;46851;49.160;8.980;2023-03-23T06:09:24;16.02;;;2.35;;
60979;SDS011;46851;49.160;8.980;2023-03-23T06:11:50;5.65;;;1.60;;
60979;SDS011;46851;49.160;8.980;2023-03-23T06:14:16;11.02;;;2.10;;
60979;SDS011;46851;49.160;8.980;2023-03-23T06:16:42;14.23;;;5.40;;
60979;SDS011;46851;49.160;8.980;2023-03-23T06:19:08;11.35;;;2.35;;
60979;SDS011;46851;49.160;8.980;2023-03-23T06:21:36;12.98;;;2.63;;
60979;SDS011;46851;49.160;8.980;2023-03-23T06:24:02;34.90;;;3.35;;
60979;SDS011;46851;49.160;8.980;2023-03-23T06:26:30;39.60;;;4.43;;
60979;SDS011;46851;49.160;8.980;2023-03-23T06:28:57;26.85;;;3.47;;
60979;SDS011;46851;49.160;8.980;2023-03-23T06:31:24;18.67;;;3.67;;
60979;SDS011;46851;49.160;8.980;2023-03-23T06:33:50;15.52;;;2.55;;
60979;SDS011;46851;49.160;8.980;2023-03-23T06:36:16;2.70;;;1.40;;
60979;SDS011;46851;49.160;8.980;2023-03-23T06:38:42;3.05;;;1.88;;
60979;SDS011;46851;49.160;8.980;2023-03-23T06:41:09;4.50;;;1.77;;
60979;SDS011;46851;49.160;8.980;2023-03-23T06:43:36;4.57;;;2.00;;
60979;SDS011;46851;49.160;8.980;2023-03-23T06:46:04;2.47;;;1.60;;
60979;SDS011;46851;49.160;8.980;2023-03-23T06:48:30;3.25;;;1.60;;
60979;SDS011;46851;49.160;8.980;2023-03-23T06:50:57;2.80;;;1.60;;
60979;SDS011;46851;49.160;8.980;2023-03-23T06:53:23;3.65;;;1.85;;
60979;SDS011;46851;49.160;8.980;2023-03-23T06:55:49;4.13;;;1.70;;
60979;SDS011;46851;49.160;8.980;2023-03-23T06:58:16;3.90;;;1.77;;
60979;SDS011;46851;49.160;8.980;2023-03-23T07:00:42;5.57;;;2.88;;
60979;SDS011;46851;49.160;8.980;2023-03-23T07:03:09;4.20;;;1.95;;
60979;SDS011;46851;49.160;8.980;2023-03-23T07:05:36;3.53;;;1.80;;
60979;SDS011;46851;49.160;8.980;2023-03-23T07:08:03;4.53;;;1.90;;
60979;SDS011;46851;49.160;8.980;2023-03-23T07:10:29;3.58;;;1.92;;
60979;SDS011;46851;49.160;8.980;2023-03-23T07:12:56;6.93;;;2.08;;
60979;SDS011;46851;49.160;8.980;2023-03-23T07:15:22;4.45;;;1.70;;
60979;SDS011;46851;49.160;8.980;2023-03-23T07:17:48;2.65;;;2.00;;
60979;SDS011;46851;49.160;8.980;2023-03-23T07:20:14;4.13;;;2.17;;
60979;SDS011;46851;49.160;8.980;2023-03-23T07:22:40;4.45;;;2.17;;
60979;SDS011;46851;49.160;8.980;2023-03-23T07:25:07;5.07;;;2.25;;
60979;SDS011;46851;49.160;8.980;2023-03-23T07:27:34;2.00;;;1.60;;
60979;SDS011;46851;49.160;8.980;2023-03-23T07:30:00;6.07;;;1.98;;
60979;SDS011;46851;49.160;8.980;2023-03-23T07:32:26;5.18;;;2.60;;
60979;SDS011;46851;49.160;8.980;2023-03-23T07:34:52;5.22;;;2.55;;
60979;SDS011;46851;49.160;8.980;2023-03-23T07:37:18;4.72;;;2.75;;
60979;SDS011;46851;49.160;8.980;2023-03-23T07:39:44;5.07;;;2.40;;
60979;SDS011;46851;49.160;8.980;2023-03-23T07:42:10;8.48;;;2.97;;
60979;SDS011;46851;49.160;8.980;2023-03-23T07:44:36;6.93;;;3.45;;
60979;SDS011;46851;49.160;8.980;2023-03-23T07:47:02;5.90;;;2.28;;
60979;SDS011;46851;49.160;8.980;2023-03-23T07:49:28;4.90;;;2.03;;
60979;SDS011;46851;49.160;8.980;2023-03-23T07:51:55;5.72;;;2.22;;
60979;SDS011;46851;49.160;8.980;2023-03-23T07:54:22;5.20;;;2.03;;
60979;SDS011;46851;49.160;8.980;2023-03-23T07:56:48;6.20;;;2.10;;
60979;SDS011;46851;49.160;8.980;2023-03-23T07:59:14;3.45;;;2.10;;
60979;SDS011;46851;49.160;8.980;2023-03-23T08:01:41;2.85;;;2.28;;
60979;SDS011;46851;49.160;8.980;2023-03-23T08:07:13;3.55;;;1.60;;
60979;SDS011;46851;49.160;8.980;2023-03-23T08:09:41;7.57;;;2.20;;
60979;SDS011;46851;49.160;8.980;2023-03-23T08:12:07;4.57;;;1.80;;
60979;SDS011;46851;49.160;8.980;2023-03-23T08:14:33;5.75;;;1.90;;
60979;SDS011;46851;49.160;8.980;2023-03-23T08:16:59;9.38;;;2.55;;
60979;SDS011;46851;49.160;8.980;2023-03-23T08:19:25;7.82;;;3.67;;
60979;SDS011;46851;49.160;8.980;2023-03-23T08:21:52;11.63;;;2.45;;
60979;SDS011;46851;49.160;8.980;2023-03-23T08:24:18;5.10;;;2.22;;
60979;SDS011;46851;49.160;8.980;2023-03-23T08:26:45;7.13;;;2.38;;
60979;SDS011;46851;49.160;8.980;2023-03-23T08:29:11;4.18;;;2.13;;
60979;SDS011;46851;49.160;8.980;2023-03-23T08:31:38;3.97;;;2.30;;
60979;SDS011;46851;49.160;8.980;2023-03-23T08:34:04;7.50;;;2.55;;
60979;SDS011;46851;49.160;8.980;2023-03-23T08:36:32;6.45;;;2.13;;
60979;SDS011;46851;49.160;8.980;2023-03-23T08:38:58;7.43;;;2.45;;
60979;SDS011;46851;49.160;8.980;2023-03-23T08:41:25;4.70;;;2.10;;
60979;SDS011;46851;49.160;8.980;2023-03-23T08:43:51;4.25;;;2.58;;
60979;SDS011;46851;49.160;8.980;2023-03-23T08:46:17;5.15;;;2.17;;
60979;SDS011;46851;49.160;8.980;2023-03-23T08:48:44;6.60;;;2.53;;
60979;SDS011;46851;49.160;8.980;2023-03-23T08:51:11;3.03;;;2.00;;
60979;SDS011;46851;49.160;8.980;2023-03-23T08:53:37;8.93;;;2.60;;
60979;SDS011;46851;49.160;8.980;2023-03-23T08:56:07;6.20;;;2.80;;
60979;SDS011;46851;49.160;8.980;2023-03-23T08:58:34;8.80;;;2.92;;
60979;SDS011;46851;49.160;8.980;2023-03-23T09:01:00;5.78;;;2.63;;
60979;SDS011;46851;49.160;8.980;2023-03-23T09:03:27;6.78;;;3.35;;
60979;SDS011;46851;49.160;8.980;2023-03-23T09:05:53;5.20;;;2.78;;
60979;SDS011;46851;49.160;8.980;2023-03-23T09:08:19;5.40;;;2.42;;
60979;SDS011;46851;49.160;8.980;2023-03-23T09:10:45;6.88;;;2.50;;
60979;SDS011;46851;49.160;8.980;2023-03-23T09:13:11;5.20;;;2.45;;
60979;SDS011;46851;49.160;8.980;2023-03-23T09:15:38;3.78;;;2.47;;
60979;SDS011;46851;49.160;8.980;2023-03-23T09:18:04;4.43;;;2.30;;
60979;SDS011;46851;49.160;8.980;2023-03-23T09:20:30;4.82;;;2.47;;
60979;SDS011;46851;49.160;8.980;2023-03-23T09:22:57;4.75;;;2.22;;
60979;SDS011;46851;49.160;8.980;2023-03-23T09:25:24;2.72;;;2.10;;
60979;SDS011;46851;49.160;8.980;2023-03-23T09:27:53;4.70;;;1.98;;
60979;SDS011;46851;49.160;8.980;2023-03-23T09:30:21;4.18;;;1.92;;
60979;SDS011;46851;49.160;8.980;2023-03-23T09:32:47;5.18;;;2.30;;
60979;SDS011;46851;49.160;8.980;2023-03-23T09:35:14;5.82;;;2.33;;
60979;SDS011;46851;49.160;8.980;2023-03-23T09:37:41;4.85;;;2.55;;
60979;SDS011;46851;49.160;8.980;2023-03-23T09:40:16;5.60;;;2.60;;
60979;SDS011;46851;49.160;8.980;2023-03-23T09:53:08;4.13;;;2.25;;
60979;SDS011;46851;49.160;8.980;2023-03-23T09:55:36;4.30;;;2.60;;
60979;SDS011;46851;49.160;8.980;2023-03-23T09:58:14;6.25;;;2.47;;
60979;SDS011;46851;49.160;8.980;2023-03-23T10:00:45;5.05;;;2.47;;
60979;SDS011;46851;49.160;8.980;2023-03-23T10:03:16;4.55;;;2.80;;
60979;SDS011;46851;49.160;8.980;2023-03-23T10:05:49;6.50;;;2.50;;
60979;SDS011;46851;49.160;8.980;2023-03-23T10:08:16;3.72;;;2.92;;
60979;SDS011;46851;49.160;8.980;2023-03-23T10:13:49;4.13;;;2.80;;
60979;SDS011;46851;49.160;8.980;2023-03-23T10:16:02;9.18;;;3.13;;
60979;SDS011;46851;49.160;8.980;2023-03-23T10:18:32;5.20;;;2.65;;
60979;SDS011;46851;49.160;8.980;2023-03-23T10:21:00;6.25;;;2.90;;
60979;SDS011;46851;49.160;8.980;2023-03-23T10:28:44;4.25;;;2.30;;
60979;SDS011;46851;49.160;8.980;2023-03-23T10:31:15;3.53;;;2.45;;
60979;SDS011;46851;49.160;8.980;2023-03-23T10:33:47;5.28;;;2.50;;
60979;SDS011;46851;49.160;8.980;2023-03-23T10:36:30;11.45;;;2.97;;
60979;SDS011;46851;49.160;8.980;2023-03-23T10:39:10;5.43;;;2.70;;
60979;SDS011;46851;49.160;8.980;2023-03-23T10:41:36;3.90;;;2.40;;
60979;SDS011;46851;49.160;8.980;2023-03-23T10:44:09;5.63;;;2.50;;
60979;SDS011;46851;49.160;8.980;2023-03-23T10:49:02;7.40;;;2.80;;
60979;SDS011;46851;49.160;8.980;2023-03-23T10:51:32;6.90;;;2.90;;
60979;SDS011;46851;49.160;8.980;2023-03-23T10:54:01;6.45;;;3.72;;
60979;SDS011;46851;49.160;8.980;2023-03-23T10:56:40;3.50;;;2.65;;
60979;SDS011;46851;49.160;8.980;2023-03-23T11:01:39;2.58;;;2.15;;
60979;SDS011;46851;49.160;8.980;2023-03-23T11:04:12;6.40;;;2.20;;
60979;SDS011;46851;49.160;8.980;2023-03-23T11:06:42;3.08;;;1.90;;
60979;SDS011;46851;49.160;8.980;2023-03-23T11:11:37;4.78;;;1.90;;
60979;SDS011;46851;49.160;8.980;2023-03-23T11:16:50;11.63;;;3.38;;
60979;SDS011;46851;49.160;8.980;2023-03-23T11:19:21;4.65;;;2.08;;
60979;SDS011;46851;49.160;8.980;2023-03-23T11:21:49;3.72;;;2.08;;
60979;SDS011;46851;49.160;8.980;2023-03-23T11:24:16;2.88;;;1.65;;
60979;SDS011;46851;49.160;8.980;2023-03-23T11:26:43;3.22;;;2.05;;
60979;SDS011;46851;49.160;8.980;2023-03-23T11:29:11;2.40;;;1.60;;
60979;SDS011;46851;49.160;8.980;2023-03-23T11:31:39;2.55;;;1.55;;
60979;SDS011;46851;49.160;8.980;2023-03-23T11:34:11;4.05;;;1.63;;
60979;SDS011;46851;49.160;8.980;2023-03-23T11:36:40;2.60;;;1.50;;
60979;SDS011;46851;49.160;8.980;2023-03-23T11:39:21;3.17;;;1.70;;
60979;SDS011;46851;49.160;8.980;2023-03-23T11:41:47;5.93;;;1.90;;
60979;SDS011;46851;49.160;8.980;2023-03-23T11:44:13;2.60;;;1.42;;
60979;SDS011;46851;49.160;8.980;2023-03-23T11:46:48;6.35;;;1.90;;
60979;SDS011;46851;49.160;8.980;2023-03-23T11:49:29;3.70;;;1.50;;
60979;SDS011;46851;49.160;8.980;2023-03-23T11:52:00;4.38;;;1.75;;
60979;SDS011;46851;49.160;8.980;2023-03-23T11:54:30;2.30;;;1.70;;
60979;SDS011;46851;49.160;8.980;2023-03-23T11:56:58;6.45;;;2.03;;
60979;SDS011;46851;49.160;8.980;2023-03-23T11:59:34;3.78;;;1.85;;
60979;SDS011;46851;49.160;8.980;2023-03-23T12:13:02;4.93;;;1.80;;
60979;SDS011;46851;49.160;8.980;2023-03-23T12:23:08;3.88;;;1.88;;
60979;SDS011;46851;49.160;8.980;2023-03-23T12:33:11;2.88;;;1.92;;
60979;SDS011;46851;49.160;8.980;2023-03-23T12:35:44;1.67;;;1.52;;
60979;SDS011;46851;49.160;8.980;2023-03-23T12:40:55;5.75;;;3.67;;
60979;SDS011;46851;49.160;8.980;2023-03-23T12:43:38;3.80;;;1.80;;
60979;SDS011;46851;49.160;8.980;2023-03-23T12:46:25;2.40;;;1.70;;
60979;SDS011;46851;49.160;8.980;2023-03-23T12:48:55;4.13;;;2.22;;
60979;SDS011;46851;49.160;8.980;2023-03-23T12:51:24;2.95;;;1.40;;
60979;SDS011;46851;49.160;8.980;2023-03-23T12:56:36;5.93;;;1.95;;
60979;SDS011;46851;49.160;8.980;2023-03-23T12:59:06;3.10;;;1.70;;
60979;SDS011;46851;49.160;8.980;2023-03-23T13:01:40;4.47;;;2.30;;
60979;SDS011;46851;49.160;8.980;2023-03-23T13:04:15;6.57;;;2.35;;
60979;SDS011;46851;49.160;8.980;2023-03-23T13:06:42;4.97;;;1.92;;
60979;SDS011;46851;49.160;8.980;2023-03-23T13:11:44;6.35;;;2.35;;
60979;SDS011;46851;49.160;8.980;2023-03-23T13:16:40;10.65;;;2.28;;
60979;SDS011;46851;49.160;8.980;2023-03-23T13:24:08;2.65;;;1.90;;
60979;SDS011;46851;49.160;8.980;2023-03-23T13:26:38;5.68;;;1.95;;
60979;SDS011;46851;49.160;8.980;2023-03-23T13:29:06;4.95;;;1.98;;
60979;SDS011;46851;49.160;8.980;2023-03-23T13:31:35;6.82;;;1.85;;
60979;SDS011;46851;49.160;8.980;2023-03-23T13:34:05;2.33;;;1.58;;
60979;SDS011;46851;49.160;8.980;2023-03-23T13:39:05;9.10;;;1.98;;
60979;SDS011;46851;49.160;8.980;2023-03-23T13:41:44;11.10;;;3.20;;
60979;SDS011;46851;49.160;8.980;2023-03-23T13:44:19;5.72;;;2.50;;
60979;SDS011;46851;49.160;8.980;2023-03-23T13:46:56;3.53;;;1.90;;
60979;SDS011;46851;49.160;8.980;2023-03-23T13:49:23;2.20;;;1.50;;
60979;SDS011;46851;49.160;8.980;2023-03-23T13:59:29;5.28;;;1.73;;
60979;SDS011;46851;49.160;8.980;2023-03-23T14:01:57;2.63;;;1.70;;
60979;SDS011;46851;49.160;8.980;2023-03-23T14:04:41;8.23;;;2.10;;
60979;SDS011;46851;49.160;8.980;2023-03-23T14:07:09;4.95;;;2.33;;
60979;SDS011;46851;49.160;8.980;2023-03-23T14:09:40;7.68;;;2.95;;
60979;SDS011;46851;49.160;8.980;2023-03-23T14:12:40;10.18;;;2.80;;
60979;SDS011;46851;49.160;8.980;2023-03-23T14:15:00;9.30;;;2.42;;
60979;SDS011;46851;49.160;8.980;2023-03-23T14:17:30;7.57;;;2.58;;
60979;SDS011;46851;49.160;8.980;2023-03-23T14:19:57;7.25;;;2.40;;
60979;SDS011;46851;49.160;8.980;2023-03-23T14:22:28;7.60;;;2.45;;
60979;SDS011;46851;49.160;8.980;2023-03-23T14:25:28;12.02;;;4.22;;
60979;SDS011;46851;49.160;8.980;2023-03-23T14:27:47;8.15;;;2.83;;
60979;SDS011;46851;49.160;8.980;2023-03-23T14:30:21;16.95;;;2.95;;
60979;SDS011;46851;49.160;8.980;2023-03-23T14:32:47;17.15;;;3.45;;
60979;SDS011;46851;49.160;8.980;2023-03-23T14:37:42;12.27;;;3.78;;
60979;SDS011;46851;49.160;8.980;2023-03-23T14:40:11;6.85;;;2.90;;
60979;SDS011;46851;49.160;8.980;2023-03-23T14:42:37;8.60;;;3.03;;
60979;SDS011;46851;49.160;8.980;2023-03-23T14:45:04;9.05;;;2.92;;
60979;SDS011;46851;49.160;8.980;2023-03-23T14:47:32;10.05;;;2.70;;
60979;SDS011;46851;49.160;8.980;2023-03-23T14:50:00;7.10;;;3.00;;
60979;SDS011;46851;49.160;8.980;2023-03-23T14:52:27;12.68;;;3.30;;
60979;SDS011;46851;49.160;8.980;2023-03-23T14:54:54;8.38;;;2.88;;
60979;SDS011;46851;49.160;8.980;2023-03-23T14:57:29;5.38;;;2.78;;
60979;SDS011;46851;49.160;8.980;2023-03-23T14:59:55;12.57;;;3.35;;
60979;SDS011;46851;49.160;8.980;2023-03-23T15:02:37;14.60;;;2.88;;
60979;SDS011;46851;49.160;8.980;2023-03-23T15:05:08;5.63;;;2.92;;
60979;SDS011;46851;49.160;8.980;2023-03-23T15:07:36;13.82;;;3.03;;
60979;SDS011;46851;49.160;8.980;2023-03-23T15:10:06;9.70;;;3.80;;
60979;SDS011;46851;49.160;8.980;2023-03-23T15:12:33;13.80;;;3.45;;
60979;SDS011;46851;49.160;8.980;2023-03-23T15:15:01;21.83;;;3.80;;
60979;SDS011;46851;49.160;8.980;2023-03-23T15:17:29;13.77;;;4.20;;
60979;SDS011;46851;49.160;8.980;2023-03-23T15:19:56;19.15;;;4.50;;
60979;SDS011;46851;49.160;8.980;2023-03-23T15:22:25;11.30;;;3.80;;
60979;SDS011;46851;49.160;8.980;2023-03-23T15:24:52;7.55;;;3.63;;
60979;SDS011;46851;49.160;8.980;2023-03-23T15:27:26;13.05;;;4.32;;
60979;SDS011;46851;49.160;8.980;2023-03-23T15:29:54;12.68;;;4.40;;
60979;SDS011;46851;49.160;8.980;2023-03-23T15:32:27;17.52;;;5.88;;
60979;SDS011;46851;49.160;8.980;2023-03-23T15:34:54;17.58;;;4.50;;
60979;SDS011;46851;49.160;8.980;2023-03-23T15:37:23;19.33;;;3.92;;
60979;SDS011;46851;49.160;8.980;2023-03-23T15:39:49;10.20;;;3.67;;
60979;SDS011;46851;49.160;8.980;2023-03-23T15:42:23;20.00;;;4.78;;
60979;SDS011;46851;49.160;8.980;2023-03-23T15:45:04;20.02;;;3.83;;
60979;SDS011;46851;49.160;8.980;2023-03-23T15:50:20;10.82;;;3.58;;
60979;SDS011;46851;49.160;8.980;2023-03-23T15:52:57;8.80;;;4.63;;
60979;SDS011;46851;49.160;8.980;2023-03-23T15:57:50;9.32;;;3.60;;
60979;SDS011;46851;49.160;8.980;2023-03-23T16:00:17;6.78;;;3.75;;
60979;SDS011;46851;49.160;8.980;2023-03-23T16:02:44;4.72;;;3.30;;
60979;SDS011;46851;49.160;8.980;2023-03-23T16:05:11;5.25;;;3.35;;
60979;SDS011;46851;49.160;8.980;2023-03-23T16:07:37;4.88;;;3.40;;
60979;SDS011;46851;49.160;8.980;2023-03-23T16:10:05;7.75;;;3.80;;
60979;SDS011;46851;49.160;8.980;2023-03-23T16:12:31;5.38;;;2.90;;
60979;SDS011;46851;49.160;8.980;2023-03-23T16:14:57;4.30;;;3.30;;
60979;SDS011;46851;49.160;8.980;2023-03-23T16:17:24;6.78;;;3.22;;
60979;SDS011;46851;49.160;8.980;2023-03-23T16:19:50;3.88;;;3.10;;
60979;SDS011;46851;49.160;8.980;2023-03-23T16:22:16;6.82;;;3.70;;
60979;SDS011;46851;49.160;8.980;2023-03-23T16:24:42;6.63;;;3.38;;
60979;SDS011;46851;49.160;8.980;2023-03-23T16:27:09;8.07;;;3.83;;
60979;SDS011;46851;49.160;8.980;2023-03-23T16:29:35;8.13;;;3.60;;
60979;SDS011;46851;49.160;8.980;2023-03-23T16:32:01;5.07;;;3.50;;
60979;SDS011;46851;49.160;8.980;2023-03-23T16:34:27;6.10;;;3.30;;
60979;SDS011;46851;49.160;8.980;2023-03-23T16:36:57;9.55;;;3.47;;
60979;SDS011;46851;49.160;8.980;2023-03-23T16:39:23;5.50;;;3.95;;
60979;SDS011;46851;49.160;8.980;2023-03-23T16:41:49;10.57;;;4.53;;
60979;SDS011;46851;49.160;8.980;2023-03-23T16:44:15;8.48;;;3.35;;